sensor_id;sensor_type;location;lat;lon;timestamp;P1;durP1;ratioP1;P2;durP2;ratioP2
49175;SDS011;35012;47.200;9.748;2023-05-02T00:00:28;1.80;;;1.70;;
49175;SDS011;35012;47.200;9.748;2023-05-02T00:02:55;2.27;;;1.77;;
49175;SDS011;35012;47.200;9.748;2023-05-02T00:05:20;2.77;;;1.87;;
49175;SDS011;35012;47.200;9.748;2023-05-02T00:07:46;2.67;;;1.50;;
49175;SDS011;35012;47.200;9.748;2023-05-02T00:10:12;2.17;;;1.97;;
49175;SDS011;35012;47.200;9.748;2023-05-02T00:12:37;1.70;;;1.60;;
49175;SDS011;35012;47.200;9.748;2023-05-02T00:15:03;1.97;;;1.77;;
49175;SDS011;35012;47.200;9.748;2023-05-02T00:17:29;3.07;;;2.20;;
49175;SDS011;35012;47.200;9.748;2023-05-02T00:19:55;4.07;;;2.20;;
49175;SDS011;35012;47.200;9.748;2023-05-02T00:22:20;2.20;;;2.00;;
49175;SDS011;35012;47.200;9.748;2023-05-02T00:24:46;4.30;;;1.77;;
49175;SDS011;35012;47.200;9.748;2023-05-02T00:27:12;2.47;;;2.10;;
49175;SDS011;35012;47.200;9.748;2023-05-02T00:29:38;2.50;;;2.30;;
49175;SDS011;35012;47.200;9.748;2023-05-02T00:32:05;3.27;;;2.40;;
49175;SDS011;35012;47.200;9.748;2023-05-02T00:34:30;3.57;;;2.63;;
49175;SDS011;35012;47.200;9.748;2023-05-02T00:36:56;2.90;;;2.10;;
49175;SDS011;35012;47.200;9.748;2023-05-02T00:39:22;2.70;;;2.50;;
49175;SDS011;35012;47.200;9.748;2023-05-02T00:41:48;3.03;;;2.50;;
49175;SDS011;35012;47.200;9.748;2023-05-02T00:44:13;2.30;;;2.10;;
49175;SDS011;35012;47.200;9.748;2023-05-02T00:46:39;2.23;;;2.03;;
49175;SDS011;35012;47.200;9.748;2023-05-02T00:49:04;2.57;;;2.37;;
49175;SDS011;35012;47.200;9.748;2023-05-02T00:51:32;2.10;;;1.90;;
49175;SDS011;35012;47.200;9.748;2023-05-02T00:53:59;2.27;;;1.73;;
49175;SDS011;35012;47.200;9.748;2023-05-02T00:56:25;1.63;;;1.53;;
49175;SDS011;35012;47.200;9.748;2023-05-02T00:58:50;1.90;;;1.50;;
49175;SDS011;35012;47.200;9.748;2023-05-02T01:14:33;1.67;;;1.23;;
49175;SDS011;35012;47.200;9.748;2023-05-02T01:17:04;1.50;;;1.20;;
49175;SDS011;35012;47.200;9.748;2023-05-02T01:19:33;3.70;;;1.20;;
49175;SDS011;35012;47.200;9.748;2023-05-02T01:22:05;2.43;;;1.50;;
49175;SDS011;35012;47.200;9.748;2023-05-02T01:24:34;1.40;;;1.30;;
49175;SDS011;35012;47.200;9.748;2023-05-02T01:30:08;4.20;;;1.23;;
49175;SDS011;35012;47.200;9.748;2023-05-02T01:32:36;5.17;;;1.20;;
49175;SDS011;35012;47.200;9.748;2023-05-02T01:35:03;2.07;;;1.43;;
49175;SDS011;35012;47.200;9.748;2023-05-02T01:37:30;1.20;;;1.10;;
49175;SDS011;35012;47.200;9.748;2023-05-02T01:39:56;1.93;;;0.93;;
49175;SDS011;35012;47.200;9.748;2023-05-02T01:42:23;1.20;;;1.10;;
49175;SDS011;35012;47.200;9.748;2023-05-02T01:44:49;2.17;;;1.00;;
49175;SDS011;35012;47.200;9.748;2023-05-02T01:47:15;1.63;;;0.83;;
49175;SDS011;35012;47.200;9.748;2023-05-02T01:49:41;2.13;;;0.97;;
49175;SDS011;35012;47.200;9.748;2023-05-02T01:52:09;1.07;;;0.73;;
49175;SDS011;35012;47.200;9.748;2023-05-02T01:54:35;2.03;;;0.73;;
49175;SDS011;35012;47.200;9.748;2023-05-02T01:57:03;1.50;;;1.00;;
49175;SDS011;35012;47.200;9.748;2023-05-02T01:59:30;0.70;;;0.70;;
49175;SDS011;35012;47.200;9.748;2023-05-02T02:01:57;1.30;;;1.20;;
49175;SDS011;35012;47.200;9.748;2023-05-02T02:04:23;3.53;;;0.90;;
49175;SDS011;35012;47.200;9.748;2023-05-02T02:06:52;0.80;;;0.70;;
49175;SDS011;35012;47.200;9.748;2023-05-02T02:09:21;0.97;;;0.90;;
49175;SDS011;35012;47.200;9.748;2023-05-02T02:11:57;1.30;;;1.20;;
49175;SDS011;35012;47.200;9.748;2023-05-02T02:14:34;0.97;;;0.77;;
49175;SDS011;35012;47.200;9.748;2023-05-02T02:17:02;3.77;;;0.80;;
49175;SDS011;35012;47.200;9.748;2023-05-02T02:19:30;0.80;;;0.80;;
49175;SDS011;35012;47.200;9.748;2023-05-02T02:21:57;1.00;;;0.70;;
49175;SDS011;35012;47.200;9.748;2023-05-02T02:24:23;0.70;;;0.70;;
49175;SDS011;35012;47.200;9.748;2023-05-02T02:26:50;1.17;;;0.87;;
49175;SDS011;35012;47.200;9.748;2023-05-02T02:29:15;0.80;;;0.80;;
49175;SDS011;35012;47.200;9.748;2023-05-02T02:31:41;1.33;;;0.90;;
49175;SDS011;35012;47.200;9.748;2023-05-02T02:34:07;1.33;;;0.90;;
49175;SDS011;35012;47.200;9.748;2023-05-02T02:36:33;2.47;;;0.83;;
49175;SDS011;35012;47.200;9.748;2023-05-02T02:39:54;1.13;;;0.80;;
49175;SDS011;35012;47.200;9.748;2023-05-02T02:45:15;1.13;;;0.80;;
49175;SDS011;35012;47.200;9.748;2023-05-02T02:48:16;0.80;;;0.80;;
49175;SDS011;35012;47.200;9.748;2023-05-02T02:53:19;0.87;;;0.87;;
49175;SDS011;35012;47.200;9.748;2023-05-02T02:55:58;3.40;;;0.80;;
49175;SDS011;35012;47.200;9.748;2023-05-02T02:58:47;1.90;;;1.00;;
49175;SDS011;35012;47.200;9.748;2023-05-02T03:01:20;1.20;;;0.93;;
49175;SDS011;35012;47.200;9.748;2023-05-02T03:03:47;1.90;;;0.90;;
49175;SDS011;35012;47.200;9.748;2023-05-02T03:06:14;1.47;;;1.00;;
49175;SDS011;35012;47.200;9.748;2023-05-02T03:08:42;1.10;;;0.93;;
49175;SDS011;35012;47.200;9.748;2023-05-02T03:11:08;2.03;;;0.90;;
49175;SDS011;35012;47.200;9.748;2023-05-02T03:13:34;0.97;;;0.90;;
49175;SDS011;35012;47.200;9.748;2023-05-02T03:19:01;1.00;;;0.90;;
49175;SDS011;35012;47.200;9.748;2023-05-02T03:21:27;1.20;;;0.90;;
49175;SDS011;35012;47.200;9.748;2023-05-02T03:23:56;1.20;;;1.10;;
49175;SDS011;35012;47.200;9.748;2023-05-02T03:26:22;0.90;;;0.90;;
49175;SDS011;35012;47.200;9.748;2023-05-02T03:28:48;1.30;;;0.90;;
49175;SDS011;35012;47.200;9.748;2023-05-02T03:31:15;2.23;;;1.10;;
49175;SDS011;35012;47.200;9.748;2023-05-02T03:33:41;1.33;;;0.87;;
49175;SDS011;35012;47.200;9.748;2023-05-02T03:36:06;4.10;;;0.80;;
49175;SDS011;35012;47.200;9.748;2023-05-02T03:38:32;0.80;;;0.63;;
49175;SDS011;35012;47.200;9.748;2023-05-02T03:40:58;1.67;;;0.70;;
49175;SDS011;35012;47.200;9.748;2023-05-02T03:43:23;1.30;;;0.80;;
49175;SDS011;35012;47.200;9.748;2023-05-02T03:45:49;0.60;;;0.60;;
49175;SDS011;35012;47.200;9.748;2023-05-02T03:48:15;0.83;;;0.70;;
49175;SDS011;35012;47.200;9.748;2023-05-02T03:50:40;1.50;;;1.10;;
49175;SDS011;35012;47.200;9.748;2023-05-02T03:53:06;1.70;;;0.70;;
49175;SDS011;35012;47.200;9.748;2023-05-02T03:55:42;0.97;;;0.80;;
49175;SDS011;35012;47.200;9.748;2023-05-02T03:58:09;1.10;;;0.70;;
49175;SDS011;35012;47.200;9.748;2023-05-02T04:00:35;0.67;;;0.60;;
49175;SDS011;35012;47.200;9.748;2023-05-02T04:03:01;1.40;;;0.83;;
49175;SDS011;35012;47.200;9.748;2023-05-02T04:05:26;1.10;;;0.70;;
49175;SDS011;35012;47.200;9.748;2023-05-02T04:07:53;0.70;;;0.70;;
49175;SDS011;35012;47.200;9.748;2023-05-02T04:10:19;1.07;;;0.90;;
49175;SDS011;35012;47.200;9.748;2023-05-02T04:12:45;1.30;;;0.80;;
49175;SDS011;35012;47.200;9.748;2023-05-02T04:15:10;3.50;;;1.00;;
49175;SDS011;35012;47.200;9.748;2023-05-02T04:17:36;1.87;;;0.90;;
49175;SDS011;35012;47.200;9.748;2023-05-02T04:20:02;1.97;;;0.80;;
49175;SDS011;35012;47.200;9.748;2023-05-02T04:22:29;2.90;;;0.83;;
49175;SDS011;35012;47.200;9.748;2023-05-02T04:24:55;1.53;;;0.93;;
49175;SDS011;35012;47.200;9.748;2023-05-02T04:27:20;1.23;;;0.93;;
49175;SDS011;35012;47.200;9.748;2023-05-02T04:29:49;2.13;;;0.90;;
49175;SDS011;35012;47.200;9.748;2023-05-02T04:32:15;1.47;;;0.80;;
49175;SDS011;35012;47.200;9.748;2023-05-02T04:34:40;0.67;;;0.67;;
49175;SDS011;35012;47.200;9.748;2023-05-02T04:37:06;0.80;;;0.80;;
49175;SDS011;35012;47.200;9.748;2023-05-02T04:39:32;2.97;;;0.80;;
49175;SDS011;35012;47.200;9.748;2023-05-02T04:41:58;0.80;;;0.80;;
49175;SDS011;35012;47.200;9.748;2023-05-02T04:44:23;0.60;;;0.60;;
49175;SDS011;35012;47.200;9.748;2023-05-02T04:46:49;24.57;;;17.70;;
49175;SDS011;35012;47.200;9.748;2023-05-02T04:49:15;9.23;;;7.73;;
49175;SDS011;35012;47.200;9.748;2023-05-02T04:51:40;2.63;;;1.90;;
49175;SDS011;35012;47.200;9.748;2023-05-02T04:54:06;1.40;;;1.00;;
49175;SDS011;35012;47.200;9.748;2023-05-02T04:56:31;1.17;;;0.83;;
49175;SDS011;35012;47.200;9.748;2023-05-02T04:58:57;1.10;;;1.00;;
49175;SDS011;35012;47.200;9.748;2023-05-02T05:01:23;4.50;;;3.07;;
49175;SDS011;35012;47.200;9.748;2023-05-02T05:03:51;4.50;;;1.93;;
49175;SDS011;35012;47.200;9.748;2023-05-02T05:06:17;1.00;;;0.90;;
49175;SDS011;35012;47.200;9.748;2023-05-02T05:08:43;1.87;;;0.80;;
49175;SDS011;35012;47.200;9.748;2023-05-02T05:11:09;0.93;;;0.77;;
49175;SDS011;35012;47.200;9.748;2023-05-02T05:13:35;3.53;;;0.80;;
49175;SDS011;35012;47.200;9.748;2023-05-02T05:16:01;1.00;;;0.90;;
49175;SDS011;35012;47.200;9.748;2023-05-02T05:18:27;1.00;;;0.90;;
49175;SDS011;35012;47.200;9.748;2023-05-02T05:20:53;3.13;;;1.00;;
49175;SDS011;35012;47.200;9.748;2023-05-02T05:23:18;1.07;;;0.83;;
49175;SDS011;35012;47.200;9.748;2023-05-02T05:25:44;1.83;;;0.70;;
49175;SDS011;35012;47.200;9.748;2023-05-02T05:28:10;3.00;;;1.10;;
49175;SDS011;35012;47.200;9.748;2023-05-02T05:30:35;6.03;;;1.07;;
49175;SDS011;35012;47.200;9.748;2023-05-02T05:33:01;1.30;;;0.93;;
49175;SDS011;35012;47.200;9.748;2023-05-02T05:35:26;1.10;;;1.00;;
49175;SDS011;35012;47.200;9.748;2023-05-02T05:37:51;2.20;;;1.30;;
49175;SDS011;35012;47.200;9.748;2023-05-02T05:40:17;1.97;;;1.10;;
49175;SDS011;35012;47.200;9.748;2023-05-02T05:42:43;1.53;;;1.33;;
49175;SDS011;35012;47.200;9.748;2023-05-02T05:45:09;2.57;;;1.30;;
49175;SDS011;35012;47.200;9.748;2023-05-02T05:47:34;1.50;;;1.20;;
49175;SDS011;35012;47.200;9.748;2023-05-02T05:50:00;3.07;;;1.17;;
49175;SDS011;35012;47.200;9.748;2023-05-02T05:52:26;3.00;;;1.27;;
49175;SDS011;35012;47.200;9.748;2023-05-02T05:54:55;1.23;;;1.13;;
49175;SDS011;35012;47.200;9.748;2023-05-02T05:57:20;1.60;;;1.50;;
49175;SDS011;35012;47.200;9.748;2023-05-02T05:59:47;1.60;;;1.27;;
49175;SDS011;35012;47.200;9.748;2023-05-02T06:02:12;1.97;;;1.77;;
49175;SDS011;35012;47.200;9.748;2023-05-02T06:04:38;3.37;;;1.77;;
49175;SDS011;35012;47.200;9.748;2023-05-02T06:07:04;3.83;;;1.50;;
49175;SDS011;35012;47.200;9.748;2023-05-02T06:09:29;1.30;;;1.20;;
49175;SDS011;35012;47.200;9.748;2023-05-02T06:11:55;3.30;;;1.47;;
49175;SDS011;35012;47.200;9.748;2023-05-02T06:14:20;2.63;;;1.67;;
49175;SDS011;35012;47.200;9.748;2023-05-02T06:16:46;1.63;;;1.37;;
49175;SDS011;35012;47.200;9.748;2023-05-02T06:19:11;2.27;;;1.40;;
49175;SDS011;35012;47.200;9.748;2023-05-02T06:21:37;2.07;;;1.40;;
49175;SDS011;35012;47.200;9.748;2023-05-02T06:24:02;1.60;;;1.20;;
49175;SDS011;35012;47.200;9.748;2023-05-02T06:26:28;1.40;;;1.30;;
49175;SDS011;35012;47.200;9.748;2023-05-02T06:28:54;2.13;;;1.93;;
49175;SDS011;35012;47.200;9.748;2023-05-02T06:31:19;1.70;;;1.50;;
49175;SDS011;35012;47.200;9.748;2023-05-02T06:33:45;2.00;;;1.27;;
49175;SDS011;35012;47.200;9.748;2023-05-02T06:36:10;2.03;;;1.40;;
49175;SDS011;35012;47.200;9.748;2023-05-02T06:38:36;2.30;;;2.10;;
49175;SDS011;35012;47.200;9.748;2023-05-02T06:41:01;2.83;;;2.13;;
49175;SDS011;35012;47.200;9.748;2023-05-02T06:43:27;1.40;;;1.00;;
49175;SDS011;35012;47.200;9.748;2023-05-02T06:45:52;2.07;;;1.20;;
49175;SDS011;35012;47.200;9.748;2023-05-02T06:48:19;3.00;;;2.37;;
49175;SDS011;35012;47.200;9.748;2023-05-02T06:50:45;3.37;;;3.07;;
49175;SDS011;35012;47.200;9.748;2023-05-02T06:53:11;2.47;;;2.27;;
49175;SDS011;35012;47.200;9.748;2023-05-02T06:55:37;2.20;;;1.93;;
49175;SDS011;35012;47.200;9.748;2023-05-02T06:58:02;5.67;;;4.87;;
49175;SDS011;35012;47.200;9.748;2023-05-02T07:00:28;1.73;;;1.63;;
49175;SDS011;35012;47.200;9.748;2023-05-02T07:02:53;2.20;;;2.00;;
49175;SDS011;35012;47.200;9.748;2023-05-02T07:05:19;2.13;;;1.40;;
49175;SDS011;35012;47.200;9.748;2023-05-02T07:07:44;2.23;;;1.50;;
49175;SDS011;35012;47.200;9.748;2023-05-02T07:10:10;1.97;;;1.67;;
49175;SDS011;35012;47.200;9.748;2023-05-02T07:12:36;1.80;;;1.70;;
49175;SDS011;35012;47.200;9.748;2023-05-02T07:15:04;2.73;;;1.63;;
49175;SDS011;35012;47.200;9.748;2023-05-02T07:17:30;2.40;;;1.57;;
49175;SDS011;35012;47.200;9.748;2023-05-02T07:19:56;1.83;;;1.50;;
49175;SDS011;35012;47.200;9.748;2023-05-02T07:22:21;1.67;;;1.30;;
49175;SDS011;35012;47.200;9.748;2023-05-02T07:24:47;1.50;;;1.40;;
49175;SDS011;35012;47.200;9.748;2023-05-02T07:27:12;1.33;;;1.23;;
49175;SDS011;35012;47.200;9.748;2023-05-02T07:29:38;3.93;;;1.40;;
49175;SDS011;35012;47.200;9.748;2023-05-02T07:32:04;2.60;;;1.60;;
49175;SDS011;35012;47.200;9.748;2023-05-02T07:34:29;2.70;;;1.43;;
49175;SDS011;35012;47.200;9.748;2023-05-02T07:36:56;2.80;;;1.80;;
49175;SDS011;35012;47.200;9.748;2023-05-02T07:39:21;1.80;;;1.50;;
49175;SDS011;35012;47.200;9.748;2023-05-02T07:41:52;2.03;;;1.67;;
49175;SDS011;35012;47.200;9.748;2023-05-02T07:44:18;3.20;;;1.50;;
49175;SDS011;35012;47.200;9.748;2023-05-02T07:46:43;2.17;;;1.60;;
49175;SDS011;35012;47.200;9.748;2023-05-02T07:49:09;1.87;;;1.60;;
49175;SDS011;35012;47.200;9.748;2023-05-02T07:51:34;1.67;;;1.57;;
49175;SDS011;35012;47.200;9.748;2023-05-02T07:54:00;1.47;;;1.37;;
49175;SDS011;35012;47.200;9.748;2023-05-02T07:56:26;2.37;;;1.87;;
49175;SDS011;35012;47.200;9.748;2023-05-02T07:58:52;2.03;;;1.57;;
49175;SDS011;35012;47.200;9.748;2023-05-02T08:01:18;1.70;;;1.60;;
49175;SDS011;35012;47.200;9.748;2023-05-02T08:03:43;2.97;;;1.80;;
49175;SDS011;35012;47.200;9.748;2023-05-02T08:06:09;3.43;;;2.23;;
49175;SDS011;35012;47.200;9.748;2023-05-02T08:08:35;3.13;;;2.23;;
49175;SDS011;35012;47.200;9.748;2023-05-02T08:11:01;2.17;;;1.50;;
49175;SDS011;35012;47.200;9.748;2023-05-02T08:13:26;2.40;;;2.20;;
49175;SDS011;35012;47.200;9.748;2023-05-02T08:15:52;2.40;;;2.20;;
49175;SDS011;35012;47.200;9.748;2023-05-02T08:18:25;3.20;;;1.63;;
49175;SDS011;35012;47.200;9.748;2023-05-02T08:20:51;3.70;;;1.70;;
49175;SDS011;35012;47.200;9.748;2023-05-02T08:23:17;3.43;;;1.67;;
49175;SDS011;35012;47.200;9.748;2023-05-02T08:25:43;2.10;;;1.90;;
49175;SDS011;35012;47.200;9.748;2023-05-02T08:28:08;1.90;;;1.80;;
49175;SDS011;35012;47.200;9.748;2023-05-02T08:30:34;3.10;;;2.60;;
49175;SDS011;35012;47.200;9.748;2023-05-02T08:32:59;3.10;;;2.80;;
49175;SDS011;35012;47.200;9.748;2023-05-02T08:35:24;3.60;;;2.00;;
49175;SDS011;35012;47.200;9.748;2023-05-02T08:37:50;3.80;;;2.73;;
49175;SDS011;35012;47.200;9.748;2023-05-02T08:40:16;2.20;;;2.00;;
49175;SDS011;35012;47.200;9.748;2023-05-02T08:42:42;2.20;;;1.90;;
49175;SDS011;35012;47.200;9.748;2023-05-02T08:45:12;2.73;;;1.97;;
49175;SDS011;35012;47.200;9.748;2023-05-02T08:47:41;2.37;;;1.70;;
49175;SDS011;35012;47.200;9.748;2023-05-02T08:50:10;1.87;;;1.77;;
49175;SDS011;35012;47.200;9.748;2023-05-02T08:52:36;1.63;;;1.53;;
49175;SDS011;35012;47.200;9.748;2023-05-02T08:55:03;3.33;;;1.70;;
49175;SDS011;35012;47.200;9.748;2023-05-02T08:57:30;3.03;;;1.90;;
49175;SDS011;35012;47.200;9.748;2023-05-02T08:59:56;2.60;;;2.40;;
49175;SDS011;35012;47.200;9.748;2023-05-02T09:05:06;1.97;;;1.87;;
49175;SDS011;35012;47.200;9.748;2023-05-02T09:07:45;1.90;;;1.80;;
49175;SDS011;35012;47.200;9.748;2023-05-02T09:10:12;2.70;;;1.87;;
49175;SDS011;35012;47.200;9.748;2023-05-02T09:12:38;2.10;;;1.90;;
49175;SDS011;35012;47.200;9.748;2023-05-02T09:15:08;2.97;;;2.23;;
49175;SDS011;35012;47.200;9.748;2023-05-02T09:17:38;1.90;;;1.80;;
49175;SDS011;35012;47.200;9.748;2023-05-02T09:20:07;2.57;;;2.13;;
49175;SDS011;35012;47.200;9.748;2023-05-02T09:22:32;2.53;;;1.77;;
49175;SDS011;35012;47.200;9.748;2023-05-02T09:24:59;1.83;;;1.40;;
49175;SDS011;35012;47.200;9.748;2023-05-02T09:27:26;1.77;;;1.67;;
49175;SDS011;35012;47.200;9.748;2023-05-02T09:29:51;1.70;;;1.60;;
49175;SDS011;35012;47.200;9.748;2023-05-02T09:32:17;2.33;;;1.80;;
49175;SDS011;35012;47.200;9.748;2023-05-02T09:35:03;2.80;;;1.87;;
49175;SDS011;35012;47.200;9.748;2023-05-02T09:37:34;3.10;;;1.97;;
49175;SDS011;35012;47.200;9.748;2023-05-02T09:40:06;2.33;;;1.67;;
49175;SDS011;35012;47.200;9.748;2023-05-02T09:42:33;2.57;;;1.90;;
49175;SDS011;35012;47.200;9.748;2023-05-02T09:45:00;3.37;;;1.83;;
49175;SDS011;35012;47.200;9.748;2023-05-02T09:47:25;1.70;;;1.60;;
49175;SDS011;35012;47.200;9.748;2023-05-02T09:49:51;3.60;;;2.67;;
49175;SDS011;35012;47.200;9.748;2023-05-02T09:52:17;3.07;;;2.30;;
49175;SDS011;35012;47.200;9.748;2023-05-02T09:54:45;2.17;;;1.97;;
49175;SDS011;35012;47.200;9.748;2023-05-02T09:57:11;2.53;;;1.90;;
49175;SDS011;35012;47.200;9.748;2023-05-02T09:59:40;3.33;;;1.53;;
49175;SDS011;35012;47.200;9.748;2023-05-02T10:02:06;2.97;;;2.00;;
49175;SDS011;35012;47.200;9.748;2023-05-02T10:04:34;3.40;;;1.83;;
49175;SDS011;35012;47.200;9.748;2023-05-02T10:07:00;2.23;;;1.97;;
49175;SDS011;35012;47.200;9.748;2023-05-02T10:09:26;1.90;;;1.40;;
49175;SDS011;35012;47.200;9.748;2023-05-02T10:11:54;2.00;;;1.80;;
49175;SDS011;35012;47.200;9.748;2023-05-02T10:14:21;2.13;;;1.93;;
49175;SDS011;35012;47.200;9.748;2023-05-02T10:20:00;2.10;;;1.90;;
49175;SDS011;35012;47.200;9.748;2023-05-02T10:22:29;3.30;;;1.90;;
49175;SDS011;35012;47.200;9.748;2023-05-02T10:24:56;2.33;;;1.50;;
49175;SDS011;35012;47.200;9.748;2023-05-02T10:27:22;2.53;;;1.90;;
49175;SDS011;35012;47.200;9.748;2023-05-02T10:29:47;2.73;;;2.13;;
49175;SDS011;35012;47.200;9.748;2023-05-02T10:32:16;2.20;;;2.00;;
49175;SDS011;35012;47.200;9.748;2023-05-02T10:34:42;2.80;;;2.50;;
49175;SDS011;35012;47.200;9.748;2023-05-02T10:37:08;2.73;;;2.37;;
49175;SDS011;35012;47.200;9.748;2023-05-02T10:39:33;2.87;;;2.63;;
49175;SDS011;35012;47.200;9.748;2023-05-02T10:41:59;2.70;;;2.50;;
49175;SDS011;35012;47.200;9.748;2023-05-02T10:47:00;4.47;;;2.87;;
49175;SDS011;35012;47.200;9.748;2023-05-02T10:49:49;3.80;;;3.43;;
49175;SDS011;35012;47.200;9.748;2023-05-02T10:52:25;3.83;;;3.43;;
49175;SDS011;35012;47.200;9.748;2023-05-02T10:55:21;4.47;;;4.07;;
49175;SDS011;35012;47.200;9.748;2023-05-02T11:00:25;5.17;;;3.80;;
49175;SDS011;35012;47.200;9.748;2023-05-02T11:02:57;4.77;;;4.07;;
49175;SDS011;35012;47.200;9.748;2023-05-02T11:05:24;4.90;;;4.50;;
49175;SDS011;35012;47.200;9.748;2023-05-02T11:10:48;6.77;;;5.80;;
49175;SDS011;35012;47.200;9.748;2023-05-02T11:13:13;8.97;;;8.07;;
49175;SDS011;35012;47.200;9.748;2023-05-02T11:18:05;8.27;;;5.30;;
49175;SDS011;35012;47.200;9.748;2023-05-02T11:20:36;5.20;;;4.80;;
49175;SDS011;35012;47.200;9.748;2023-05-02T11:25:38;6.60;;;5.13;;
49175;SDS011;35012;47.200;9.748;2023-05-02T11:28:06;5.33;;;4.83;;
49175;SDS011;35012;47.200;9.748;2023-05-02T11:30:36;5.70;;;5.20;;
49175;SDS011;35012;47.200;9.748;2023-05-02T11:35:31;5.47;;;4.97;;
49175;SDS011;35012;47.200;9.748;2023-05-02T11:38:00;5.60;;;5.00;;
49175;SDS011;35012;47.200;9.748;2023-05-02T11:40:27;5.47;;;4.97;;
49175;SDS011;35012;47.200;9.748;2023-05-02T11:42:53;6.00;;;5.50;;
49175;SDS011;35012;47.200;9.748;2023-05-02T11:45:19;5.40;;;4.97;;
49175;SDS011;35012;47.200;9.748;2023-05-02T11:47:49;6.73;;;6.13;;
49175;SDS011;35012;47.200;9.748;2023-05-02T11:50:15;5.93;;;5.30;;
49175;SDS011;35012;47.200;9.748;2023-05-02T11:52:42;6.37;;;5.77;;
49175;SDS011;35012;47.200;9.748;2023-05-02T11:55:12;6.27;;;5.73;;
49175;SDS011;35012;47.200;9.748;2023-05-02T11:57:39;6.97;;;6.37;;
49175;SDS011;35012;47.200;9.748;2023-05-02T12:00:05;7.00;;;6.30;;
49175;SDS011;35012;47.200;9.748;2023-05-02T12:02:44;6.77;;;6.17;;
49175;SDS011;35012;47.200;9.748;2023-05-02T12:05:13;9.47;;;6.10;;
49175;SDS011;35012;47.200;9.748;2023-05-02T12:07:46;6.80;;;6.10;;
49175;SDS011;35012;47.200;9.748;2023-05-02T12:10:14;7.83;;;6.83;;
49175;SDS011;35012;47.200;9.748;2023-05-02T12:12:42;6.77;;;6.03;;
49175;SDS011;35012;47.200;9.748;2023-05-02T12:15:09;6.20;;;5.50;;
49175;SDS011;35012;47.200;9.748;2023-05-02T12:17:39;6.30;;;5.80;;
49175;SDS011;35012;47.200;9.748;2023-05-02T12:20:06;6.23;;;5.73;;
49175;SDS011;35012;47.200;9.748;2023-05-02T12:22:33;6.77;;;6.20;;
49175;SDS011;35012;47.200;9.748;2023-05-02T12:24:58;6.37;;;5.77;;
49175;SDS011;35012;47.200;9.748;2023-05-02T12:27:24;6.30;;;5.80;;
49175;SDS011;35012;47.200;9.748;2023-05-02T12:29:50;6.60;;;6.00;;
49175;SDS011;35012;47.200;9.748;2023-05-02T12:32:26;6.40;;;5.80;;
49175;SDS011;35012;47.200;9.748;2023-05-02T12:35:00;5.93;;;5.43;;
49175;SDS011;35012;47.200;9.748;2023-05-02T12:37:27;6.07;;;5.57;;
49175;SDS011;35012;47.200;9.748;2023-05-02T12:39:53;5.77;;;5.23;;
49175;SDS011;35012;47.200;9.748;2023-05-02T12:42:20;5.53;;;5.13;;
49175;SDS011;35012;47.200;9.748;2023-05-02T12:44:48;6.03;;;5.43;;
49175;SDS011;35012;47.200;9.748;2023-05-02T12:47:16;6.80;;;6.20;;
49175;SDS011;35012;47.200;9.748;2023-05-02T12:52:19;7.40;;;6.80;;
49175;SDS011;35012;47.200;9.748;2023-05-02T12:54:46;6.00;;;5.50;;
49175;SDS011;35012;47.200;9.748;2023-05-02T12:57:24;5.50;;;5.10;;
49175;SDS011;35012;47.200;9.748;2023-05-02T12:59:52;5.73;;;5.13;;
49175;SDS011;35012;47.200;9.748;2023-05-02T13:02:18;6.17;;;5.63;;
49175;SDS011;35012;47.200;9.748;2023-05-02T13:04:45;6.47;;;5.73;;
49175;SDS011;35012;47.200;9.748;2023-05-02T13:07:10;6.17;;;5.57;;
49175;SDS011;35012;47.200;9.748;2023-05-02T13:09:36;5.47;;;4.83;;
49175;SDS011;35012;47.200;9.748;2023-05-02T13:12:02;6.00;;;5.50;;
49175;SDS011;35012;47.200;9.748;2023-05-02T13:14:28;6.50;;;5.90;;
49175;SDS011;35012;47.200;9.748;2023-05-02T13:16:54;5.20;;;4.70;;
49175;SDS011;35012;47.200;9.748;2023-05-02T13:19:20;5.00;;;4.60;;
49175;SDS011;35012;47.200;9.748;2023-05-02T13:21:46;4.90;;;4.50;;
49175;SDS011;35012;47.200;9.748;2023-05-02T13:24:11;4.70;;;4.30;;
49175;SDS011;35012;47.200;9.748;2023-05-02T13:26:37;4.13;;;3.60;;
49175;SDS011;35012;47.200;9.748;2023-05-02T13:29:03;4.80;;;3.40;;
49175;SDS011;35012;47.200;9.748;2023-05-02T13:31:28;3.57;;;2.90;;
49175;SDS011;35012;47.200;9.748;2023-05-02T13:33:54;3.60;;;3.30;;
49175;SDS011;35012;47.200;9.748;2023-05-02T13:36:19;3.40;;;3.10;;
49175;SDS011;35012;47.200;9.748;2023-05-02T13:38:45;3.10;;;2.80;;
49175;SDS011;35012;47.200;9.748;2023-05-02T13:41:10;3.33;;;3.00;;
49175;SDS011;35012;47.200;9.748;2023-05-02T13:43:36;2.80;;;2.60;;
49175;SDS011;35012;47.200;9.748;2023-05-02T13:46:03;3.67;;;2.77;;
49175;SDS011;35012;47.200;9.748;2023-05-02T13:48:28;3.80;;;3.40;;
49175;SDS011;35012;47.200;9.748;2023-05-02T13:50:54;3.20;;;2.90;;
49175;SDS011;35012;47.200;9.748;2023-05-02T13:53:20;3.37;;;3.07;;
49175;SDS011;35012;47.200;9.748;2023-05-02T13:55:45;3.30;;;3.10;;
49175;SDS011;35012;47.200;9.748;2023-05-02T13:58:11;3.00;;;2.80;;
49175;SDS011;35012;47.200;9.748;2023-05-02T14:00:36;3.73;;;2.70;;
49175;SDS011;35012;47.200;9.748;2023-05-02T14:03:02;3.13;;;2.87;;
49175;SDS011;35012;47.200;9.748;2023-05-02T14:05:27;2.87;;;2.67;;
49175;SDS011;35012;47.200;9.748;2023-05-02T14:07:53;3.93;;;3.30;;
49175;SDS011;35012;47.200;9.748;2023-05-02T14:10:18;3.67;;;3.37;;
49175;SDS011;35012;47.200;9.748;2023-05-02T14:12:44;3.00;;;2.80;;
49175;SDS011;35012;47.200;9.748;2023-05-02T14:15:09;3.10;;;2.80;;
49175;SDS011;35012;47.200;9.748;2023-05-02T14:17:35;2.83;;;2.63;;
49175;SDS011;35012;47.200;9.748;2023-05-02T14:20:01;2.93;;;2.60;;
49175;SDS011;35012;47.200;9.748;2023-05-02T14:22:26;3.00;;;2.70;;
49175;SDS011;35012;47.200;9.748;2023-05-02T14:24:52;3.53;;;3.00;;
49175;SDS011;35012;47.200;9.748;2023-05-02T14:27:17;3.40;;;3.10;;
49175;SDS011;35012;47.200;9.748;2023-05-02T14:29:46;3.50;;;3.20;;
49175;SDS011;35012;47.200;9.748;2023-05-02T14:32:12;3.90;;;3.60;;
49175;SDS011;35012;47.200;9.748;2023-05-02T14:34:38;5.00;;;3.90;;
49175;SDS011;35012;47.200;9.748;2023-05-02T14:37:04;3.43;;;3.13;;
49175;SDS011;35012;47.200;9.748;2023-05-02T14:39:29;3.57;;;3.07;;
49175;SDS011;35012;47.200;9.748;2023-05-02T14:41:55;6.33;;;3.20;;
49175;SDS011;35012;47.200;9.748;2023-05-02T14:44:20;3.90;;;3.50;;
49175;SDS011;35012;47.200;9.748;2023-05-02T14:46:46;4.27;;;2.43;;
49175;SDS011;35012;47.200;9.748;2023-05-02T14:49:12;5.03;;;2.30;;
49175;SDS011;35012;47.200;9.748;2023-05-02T14:51:37;2.47;;;2.27;;
49175;SDS011;35012;47.200;9.748;2023-05-02T14:54:03;2.20;;;2.00;;
49175;SDS011;35012;47.200;9.748;2023-05-02T14:56:29;5.03;;;2.20;;
49175;SDS011;35012;47.200;9.748;2023-05-02T14:58:55;3.93;;;3.27;;
49175;SDS011;35012;47.200;9.748;2023-05-02T15:01:21;2.00;;;1.80;;
49175;SDS011;35012;47.200;9.748;2023-05-02T15:03:46;2.40;;;2.20;;
49175;SDS011;35012;47.200;9.748;2023-05-02T15:06:16;4.43;;;4.03;;
49175;SDS011;35012;47.200;9.748;2023-05-02T15:08:42;4.77;;;4.37;;
49175;SDS011;35012;47.200;9.748;2023-05-02T15:11:09;8.87;;;6.67;;
49175;SDS011;35012;47.200;9.748;2023-05-02T15:13:35;10.70;;;7.53;;
49175;SDS011;35012;47.200;9.748;2023-05-02T15:16:01;11.10;;;8.23;;
49175;SDS011;35012;47.200;9.748;2023-05-02T15:18:28;8.30;;;6.80;;
49175;SDS011;35012;47.200;9.748;2023-05-02T15:20:54;5.30;;;4.80;;
49175;SDS011;35012;47.200;9.748;2023-05-02T15:23:20;10.40;;;7.07;;
49175;SDS011;35012;47.200;9.748;2023-05-02T15:25:45;21.50;;;13.30;;
49175;SDS011;35012;47.200;9.748;2023-05-02T15:28:11;10.47;;;7.00;;
49175;SDS011;35012;47.200;9.748;2023-05-02T15:30:36;4.40;;;3.97;;
49175;SDS011;35012;47.200;9.748;2023-05-02T15:33:02;4.63;;;3.67;;
49175;SDS011;35012;47.200;9.748;2023-05-02T15:35:28;3.67;;;3.37;;